Time;durP1;ratioP1;P1;durP2;ratioP2;P2;SDS_P1;SDS_P2;PMS_P1;PMS_P2;Temp;Humidity;BMP_temperature;BMP_pressure;BME280_temperature;BME280_humidity;BME280_pressure;Samples;Min_cycle;Max_cycle;Signal;HPM_P1;HPM_P2
2022/05/14 00:08:03;;;;;;;5.78;1.92;;;;;;;21.14;52.03;100503.78;18497094;32;20115;-65
2022/05/14 00:18:09;;;;;;;3.62;1.95;;;;;;;21.33;50.43;100514.44;18496404;32;20096;-65
2022/05/14 00:28:14;;;;;;;3.95;2.12;;;;;;;20.93;53.13;100522.38;18497462;32;20092;-65
2022/05/14 00:38:17;;;;;;;4.35;2.05;;;;;;;21.11;53.87;100529.63;18495710;32;20092;-65
2022/05/14 00:48:22;;;;;;;3.97;2.20;;;;;;;20.77;54.98;100526.59;18495014;32;20101;-65
2022/05/14 00:58:31;;;;;;;5.00;2.40;;;;;;;20.53;55.79;100534.69;18495459;32;20138;-65
2022/05/14 01:08:36;;;;;;;3.97;2.22;;;;;;;20.77;55.10;100542.50;18493928;32;20102;-65
2022/05/14 01:18:39;;;;;;;5.55;2.28;;;;;;;20.32;55.27;100544.38;18493281;32;20092;-65
2022/05/14 01:28:44;;;;;;;6.20;2.42;;;;;;;20.41;54.92;100556.41;18492838;32;20096;-65
2022/05/14 01:38:47;;;;;;;6.15;2.03;;;;;;;19.74;57.72;100557.19;18492141;32;20449;-65
2022/05/14 01:48:52;;;;;;;4.72;2.50;;;;;;;19.34;59.11;100564.84;18491562;32;20092;-65
2022/05/14 01:58:55;;;;;;;4.53;2.00;;;;;;;18.88;60.82;100562.00;18491111;32;20649;-65
2022/05/14 02:09:00;;;;;;;4.53;2.35;;;;;;;18.46;61.88;100565.16;18500197;32;20129;-65
2022/05/14 02:19:05;;;;;;;4.57;2.22;;;;;;;17.69;64.40;100582.44;18500007;32;20112;-65
2022/05/14 02:29:10;;;;;;;5.60;2.92;;;;;;;17.34;66.49;100586.00;18499614;32;20136;-65
2022/05/14 02:39:14;;;;;;;6.10;3.12;;;;;;;17.20;66.73;100588.19;18497849;32;20093;-65
2022/05/14 02:49:18;;;;;;;4.57;2.40;;;;;;;17.11;66.74;100599.81;18498811;32;20093;-65
2022/05/14 02:59:22;;;;;;;5.57;2.37;;;;;;;16.57;68.53;100609.03;18498431;32;20133;-65
2022/05/14 03:09:27;;;;;;;6.30;2.62;;;;;;;16.56;68.58;100617.88;18499492;32;20107;-65
2022/05/14 03:19:30;;;;;;;6.35;3.12;;;;;;;16.07;70.10;100625.97;18498323;32;20107;-65
2022/05/14 03:29:35;;;;;;;7.18;3.22;;;;;;;16.29;69.30;100641.31;18498312;32;20088;-65
2022/05/14 03:39:38;;;;;;;7.40;3.22;;;;;;;16.28;69.32;100643.09;18497965;32;20128;-65
2022/05/14 03:49:43;;;;;;;8.00;3.22;;;;;;;16.03;70.94;100651.50;18498552;32;20467;-65
2022/05/14 03:59:47;;;;;;;7.50;3.03;;;;;;;15.87;72.52;100656.19;18495755;32;20101;-65
2022/05/14 04:09:51;;;;;;;6.50;3.10;;;;;;;16.44;70.69;100675.22;18495830;32;20100;-65
2022/05/14 04:19:54;;;;;;;6.25;3.25;;;;;;;16.64;71.88;100679.16;18496132;32;20440;-65
2022/05/14 04:29:59;;;;;;;6.43;2.92;;;;;;;17.29;70.71;100685.53;18495440;32;20476;-65
2022/05/14 04:40:02;;;;;;;6.93;3.20;;;;;;;17.77;69.07;100695.72;18495589;32;20441;-65
2022/05/14 04:50:08;;;;;;;7.78;3.33;;;;;;;18.10;67.22;100707.16;18494526;32;20088;-66
2022/05/14 05:00:14;;;;;;;6.00;2.75;;;;;;;18.87;65.52;100713.66;18494554;32;20123;-65
2022/05/14 05:10:19;;;;;;;8.65;3.25;;;;;;;19.97;61.78;100717.09;18494117;32;20356;-65
2022/05/14 05:20:22;;;;;;;6.60;3.15;;;;;;;20.35;59.37;100716.59;18493279;32;20492;-66
2022/05/14 05:30:27;;;;;;;5.55;2.53;;;;;;;20.65;58.74;100713.66;18493772;32;20085;-65
2022/05/14 05:40:30;;;;;;;6.00;2.67;;;;;;;20.92;57.74;100734.75;18498317;32;20119;-65
2022/05/14 05:50:37;;;;;;;3.67;2.28;;;;;;;21.30;57.02;100739.38;18497411;32;20141;-65
2022/05/14 06:00:41;;;;;;;3.28;1.90;;;;;;;21.81;55.54;100747.88;18499922;32;20089;-65
2022/05/14 06:10:46;;;;;;;2.70;1.70;;;;;;;21.58;53.07;100751.50;18499467;32;20133;-65
2022/05/14 06:20:49;;;;;;;3.33;1.50;;;;;;;22.02;49.46;100751.38;18499609;32;20452;-65
2022/05/14 06:30:53;;;;;;;3.53;1.80;;;;;;;22.43;45.98;100754.88;18499653;32;20522;-65
2022/05/14 06:40:57;;;;;;;5.72;1.60;;;;;;;22.46;44.72;100770.69;18497789;32;20111;-65
2022/05/14 06:51:03;;;;;;;4.75;1.62;;;;;;;22.80;43.74;100762.94;18498873;32;20097;-65
2022/05/14 07:01:07;;;;;;;2.20;1.20;;;;;;;23.01;40.25;100782.34;18494331;32;20093;-67
2022/05/14 07:11:12;;;;;;;3.87;1.60;;;;;;;23.44;37.14;100790.03;18495408;32;20092;-66
2022/05/14 07:21:15;;;;;;;2.33;1.20;;;;;;;24.65;34.38;100786.41;18496248;32;20377;-67
2022/05/14 07:31:20;;;;;;;2.65;1.35;;;;;;;28.15;28.75;100785.34;18495844;32;20101;-67
2022/05/14 07:41:23;;;;;;;5.25;1.70;;;;;;;31.15;22.79;100767.06;18492221;32;20124;-67
2022/05/14 07:51:28;;;;;;;4.15;1.48;;;;;;;29.96;24.63;100780.19;18493492;32;20127;-68
2022/05/14 08:01:31;;;;;;;3.03;1.50;;;;;;;27.35;27.23;100789.81;18492168;32;20118;-66
2022/05/14 08:11:36;;;;;;;2.25;1.30;;;;;;;26.08;29.08;100788.00;18490474;32;20361;-66
2022/05/14 08:32:05;;;;;;;2.60;1.20;;;;;;;25.13;29.18;100792.69;18353837;32;20151;-68
2022/05/14 08:42:09;;;;;;;1.90;1.12;;;;;;;25.03;28.61;100787.88;18298955;32;20131;-66
2022/05/14 08:52:17;;;;;;;4.90;1.50;;;;;;;25.21;29.47;100791.31;18351003;32;20117;-67
2022/05/14 09:02:22;;;;;;;3.92;1.50;;;;;;;25.22;30.19;100786.81;18368076;32;20129;-66
2022/05/14 09:12:32;;;;;;;2.03;1.35;;;;;;;26.21;29.46;100782.78;18491062;32;20124;-66
2022/05/14 09:22:39;;;;;;;3.15;1.55;;;;;;;26.15;29.53;100780.50;18498001;32;20105;-69
2022/05/14 09:32:45;;;;;;;2.42;1.25;;;;;;;25.60;30.17;100781.06;18497911;32;20158;-67
2022/05/14 09:42:50;;;;;;;3.05;1.37;;;;;;;26.22;29.31;100764.94;18494636;32;20386;-68
2022/05/14 09:53:00;;;;;;;2.20;1.15;;;;;;;26.67;28.32;100768.31;18498973;32;20100;-66
2022/05/14 10:03:20;;;;;;;3.25;1.40;;;;;;;26.69;28.28;100762.84;18498229;32;20122;-66
2022/05/14 10:13:32;;;;;;;2.30;1.40;;;;;;;26.78;28.13;100750.69;18497213;32;20388;-68
2022/05/14 10:34:39;;;;;;;2.42;1.40;;;;;;;26.52;27.71;100746.09;18494212;32;20088;-66
2022/05/14 10:44:46;;;;;;;2.55;1.48;;;;;;;26.54;28.24;100740.62;18497349;32;20120;-66
2022/05/14 10:54:51;;;;;;;2.15;1.30;;;;;;;26.69;27.79;100731.59;18496179;32;20460;-66
2022/05/14 11:04:56;;;;;;;3.60;1.50;;;;;;;26.86;27.00;100729.63;18493888;32;20515;-66
2022/05/14 11:15:02;;;;;;;2.00;1.25;;;;;;;27.00;28.10;100732.28;18491970;32;20119;-68
2022/05/14 11:25:11;;;;;;;1.55;1.08;;;;;;;27.17;26.11;100724.06;18492133;32;20101;-66
2022/05/14 11:35:17;;;;;;;3.08;1.20;;;;;;;26.95;26.07;100726.38;18494602;32;20460;-65
2022/05/14 11:45:24;;;;;;;2.75;1.25;;;;;;;27.34;24.93;100720.25;18495579;32;20376;-66
2022/05/14 11:55:30;;;;;;;4.68;1.55;;;;;;;27.35;24.35;100716.62;18492048;32;20420;-66
2022/05/14 12:05:37;;;;;;;4.50;1.27;;;;;;;27.59;25.59;100708.72;18494476;32;20097;-66
2022/05/14 12:15:48;;;;;;;2.37;1.30;;;;;;;27.54;25.69;100705.47;18491747;32;20431;-66
2022/05/14 12:25:52;;;;;;;2.75;1.20;;;;;;;27.00;26.67;100700.12;18493558;32;20089;-66
2022/05/14 12:35:58;;;;;;;3.40;1.25;;;;;;;27.15;24.88;100695.56;18490386;32;20097;-68
2022/05/14 12:46:04;;;;;;;3.65;1.35;;;;;;;27.39;25.08;100689.50;18461020;32;20097;-65
2022/05/14 12:56:09;;;;;;;4.85;1.40;;;;;;;27.60;24.82;100693.47;18488215;32;113781;-67
2022/05/14 13:06:16;;;;;;;2.90;1.25;;;;;;;27.25;27.18;100679.72;18489840;32;20501;-65
2022/05/14 13:16:22;;;;;;;4.82;1.40;;;;;;;27.57;26.93;100667.78;18491561;32;20216;-65
2022/05/14 13:26:31;;;;;;;3.53;1.40;;;;;;;27.02;27.00;100659.84;18491147;32;20111;-66
2022/05/14 13:46:59;;;;;;;1.75;1.05;;;;;;;27.48;26.10;100639.75;18484633;32;20131;-66
2022/05/14 13:57:07;;;;;;;3.47;1.37;;;;;;;27.78;24.89;100633.19;18488329;32;20152;-67
2022/05/14 14:07:11;;;;;;;2.72;1.02;;;;;;;27.73;26.09;100627.31;18428982;32;20666;-67
2022/05/14 14:17:16;;;;;;;1.40;1.00;;;;;;;26.59;25.65;100626.09;18487608;32;20107;-67
2022/05/14 14:27:19;;;;;;;3.22;1.10;;;;;;;26.45;25.56;100627.84;18494366;32;20466;-65
2022/05/14 14:37:24;;;;;;;2.55;1.05;;;;;;;25.56;27.35;100629.87;18494099;32;20084;-66
2022/05/14 14:47:29;;;;;;;2.62;0.95;;;;;;;25.10;29.03;100608.59;18495416;32;20164;-65
2022/05/14 14:57:34;;;;;;;1.67;0.98;;;;;;;26.51;27.13;100604.31;18492556;32;20429;-66
2022/05/14 15:07:37;;;;;;;2.90;1.10;;;;;;;26.53;27.43;100595.22;18487957;32;20111;-65
2022/05/14 15:17:44;;;;;;;1.70;0.82;;;;;;;26.08;27.29;100579.37;18493158;32;20111;-66
2022/05/14 15:27:47;;;;;;;2.80;0.93;;;;;;;26.20;26.98;100574.25;18495934;32;20149;-65
2022/05/14 15:37:52;;;;;;;1.35;0.90;;;;;;;26.14;27.81;100570.97;18496476;32;20103;-65
2022/05/14 15:47:56;;;;;;;2.05;1.10;;;;;;;25.87;26.82;100573.63;18492015;32;20366;-66
2022/05/14 15:58:01;;;;;;;3.78;1.05;;;;;;;25.67;27.20;100556.16;18493068;32;20089;-65
2022/05/14 16:08:04;;;;;;;1.37;1.10;;;;;;;25.60;28.05;100553.88;18492297;32;20101;-66
2022/05/14 16:18:12;;;;;;;2.35;1.20;;;;;;;25.15;26.52;100553.09;18493484;32;20458;-65
2022/05/14 16:28:16;;;;;;;2.40;1.10;;;;;;;25.05;27.40;100552.78;18494507;32;20081;-65
2022/05/14 16:38:24;;;;;;;2.50;1.40;;;;;;;25.01;28.09;100556.63;18492148;32;20100;-64
2022/05/14 16:48:27;;;;;;;3.28;1.10;;;;;;;24.75;28.07;100565.19;18492922;32;20085;-65
2022/05/14 16:58:32;;;;;;;3.97;1.15;;;;;;;24.75;27.71;100570.53;18492593;32;20133;-65
2022/05/14 17:08:35;;;;;;;2.15;1.25;;;;;;;24.10;29.12;100574.28;18490592;32;20128;-65
2022/05/14 17:19:00;;;;;;;4.35;2.10;;;;;;;23.67;30.64;100575.69;18490483;32;20456;-66
2022/05/14 17:29:04;;;;;;;4.72;1.75;;;;;;;23.72;30.51;100570.09;18489451;32;20088;-65
2022/05/14 17:49:29;;;;;;;2.80;1.60;;;;;;;23.17;31.33;100597.88;18494331;32;20132;-65
2022/05/14 17:59:35;;;;;;;4.03;1.50;;;;;;;23.07;32.29;100606.34;18496189;32;20502;-66
2022/05/14 18:09:38;;;;;;;3.58;1.75;;;;;;;23.17;32.02;100621.84;18497632;32;20093;-66
2022/05/14 18:19:44;;;;;;;4.68;1.40;;;;;;;22.27;33.35;100627.94;18496449;32;20073;-65
2022/05/14 18:29:49;;;;;;;2.92;1.48;;;;;;;22.79;32.80;100631.69;18497826;32;20113;-65
2022/05/14 18:39:57;;;;;;;2.08;1.25;;;;;;;22.71;33.19;100642.69;18491857;32;20119;-66
2022/05/14 18:50:00;;;;;;;1.83;1.20;;;;;;;22.30;33.79;100643.75;18498263;32;20444;-65
2022/05/14 19:00:09;;;;;;;3.17;1.42;;;;;;;22.06;34.62;100656.41;18491921;32;20114;-65
2022/05/14 19:10:14;;;;;;;2.58;1.40;;;;;;;21.92;34.55;100661.50;18497741;32;20081;-65
2022/05/14 19:20:20;;;;;;;2.87;1.48;;;;;;;21.79;35.71;100661.19;18490759;32;20115;-67
2022/05/14 19:30:24;;;;;;;5.93;2.05;;;;;;;21.25;38.01;100680.34;18495910;32;20084;-68
2022/05/14 19:40:32;;;;;;;4.07;1.60;;;;;;;21.20;37.80;100684.03;18488181;32;20100;-67
2022/05/14 19:50:36;;;;;;;5.45;1.80;;;;;;;20.70;40.40;100674.53;18491215;32;20089;-67
2022/05/14 20:00:42;;;;;;;3.37;1.80;;;;;;;19.70;42.89;100690.63;18493650;32;20124;-67
2022/05/14 20:10:51;;;;;;;4.32;1.60;;;;;;;19.40;42.95;100698.75;18493721;32;20120;-67
2022/05/14 20:20:55;;;;;;;2.70;1.70;;;;;;;19.48;42.79;100704.63;18495700;32;20384;-67
2022/05/14 20:30:59;;;;;;;2.85;1.45;;;;;;;18.99;45.69;100707.13;18493249;32;20092;-67
2022/05/14 20:41:04;;;;;;;2.22;1.40;;;;;;;19.83;41.18;100705.19;18493536;32;20163;-67
2022/05/14 20:51:08;;;;;;;5.18;2.28;;;;;;;20.22;39.14;100713.53;18493332;32;20101;-67
2022/05/14 21:01:13;;;;;;;3.53;1.40;;;;;;;20.58;38.13;100712.16;18491972;32;20092;-67
2022/05/14 21:11:16;;;;;;;2.95;1.75;;;;;;;20.66;36.82;100710.94;18492144;32;20115;-67
2022/05/14 21:21:20;;;;;;;3.42;1.45;;;;;;;20.80;37.79;100720.12;18492281;32;20138;-67
2022/05/14 21:31:23;;;;;;;2.90;1.70;;;;;;;19.22;43.89;100730.19;18491017;32;20112;-67
2022/05/14 21:41:29;;;;;;;2.97;1.83;;;;;;;18.25;45.51;100752.53;18491549;32;20093;-66
2022/05/14 21:51:32;;;;;;;2.65;1.83;;;;;;;17.82;48.95;100750.13;18491842;32;20092;-66
2022/05/14 22:01:37;;;;;;;2.25;1.73;;;;;;;17.29;51.35;100753.25;18491120;32;20112;-66
2022/05/14 22:11:40;;;;;;;4.22;2.22;;;;;;;16.53;53.79;100761.09;18490833;32;20115;-66
2022/05/14 22:21:45;;;;;;;3.03;1.80;;;;;;;16.40;54.36;100770.16;18496296;32;20361;-67
2022/05/14 22:31:48;;;;;;;3.12;1.80;;;;;;;15.82;56.64;100768.59;18499648;32;20175;-67
2022/05/14 22:41:53;;;;;;;4.15;2.03;;;;;;;15.59;56.38;100772.50;18499405;32;20092;-67
2022/05/14 22:51:56;;;;;;;3.53;1.90;;;;;;;15.21;59.00;100771.38;18499247;32;20096;-66
2022/05/14 23:02:00;;;;;;;2.70;2.00;;;;;;;14.89;59.60;100763.06;18500006;32;20104;-67
2022/05/14 23:12:04;;;;;;;3.62;1.87;;;;;;;14.60;60.11;100764.31;18498593;32;20100;-66
2022/05/14 23:22:09;;;;;;;5.55;2.30;;;;;;;14.04;61.71;100764.09;18498290;32;20404;-66
2022/05/14 23:32:12;;;;;;;3.83;2.05;;;;;;;13.83;61.86;100755.56;18498860;32;20115;-67
2022/05/14 23:42:17;;;;;;;6.75;2.60;;;;;;;13.92;62.38;100770.34;18497865;32;20111;-66
2022/05/14 23:52:20;;;;;;;4.60;2.35;;;;;;;13.77;62.67;100763.50;18497904;32;20088;-67
